Time;durP1;ratioP1;P1;durP2;ratioP2;P2;SDS_P1;SDS_P2;PMS_P1;PMS_P2;Temp;Humidity;BMP_temperature;BMP_pressure;BME280_temperature;BME280_humidity;BME280_pressure;Samples;Min_cycle;Max_cycle;Signal;HPM_P1;HPM_P2
2021/09/09 00:01:42;;;;;;;5.89;5.30;;;;;;;14.85;84.26;98902.19;2045836;76;21357;-79
2021/09/09 00:04:45;;;;;;;5.22;4.59;;;;;;;14.82;84.38;98902.28;2048218;79;20183;-78
2021/09/09 00:07:48;;;;;;;4.93;4.20;;;;;;;14.78;84.54;98900.66;2047540;79;20205;-78
2021/09/09 00:10:51;;;;;;;4.69;4.19;;;;;;;14.76;84.43;98899.84;2047436;79;20187;-78
2021/09/09 00:13:53;;;;;;;6.41;4.35;;;;;;;14.69;84.34;98903.53;2048293;79;20751;-78
2021/09/09 00:16:56;;;;;;;4.74;4.20;;;;;;;14.63;84.33;98909.78;2047870;79;20231;-78
2021/09/09 00:19:59;;;;;;;4.36;3.96;;;;;;;14.61;84.49;98902.91;2048248;79;20213;-78
2021/09/09 00:23:02;;;;;;;5.39;4.53;;;;;;;14.60;84.91;98903.81;2048611;79;20192;-78
2021/09/09 00:26:05;;;;;;;5.07;4.29;;;;;;;14.58;85.07;98900.38;2047754;78;20175;-78
2021/09/09 00:29:07;;;;;;;5.79;4.06;;;;;;;14.52;85.16;98894.41;2048550;79;20263;-78
2021/09/09 00:32:10;;;;;;;4.63;4.20;;;;;;;14.52;85.44;98891.81;2046841;76;21403;-79
2021/09/09 00:35:13;;;;;;;4.95;4.16;;;;;;;14.50;85.38;98887.53;2047737;79;20302;-78
2021/09/09 00:38:16;;;;;;;3.88;3.58;;;;;;;14.48;85.26;98886.72;2048383;79;20366;-78
2021/09/09 00:41:18;;;;;;;4.09;3.79;;;;;;;14.47;85.13;98887.63;2048264;79;20183;-78
2021/09/09 00:44:28;;;;;;;4.96;3.67;;;;;;;14.44;84.96;98885.94;2048034;79;20215;-78
2021/09/09 00:47:31;;;;;;;4.81;4.24;;;;;;;14.38;85.09;98877.41;2042464;77;21288;-78
2021/09/09 00:50:33;;;;;;;4.34;3.94;;;;;;;14.33;85.29;98869.69;2041697;79;21117;-78
2021/09/09 00:53:38;;;;;;;4.47;3.96;;;;;;;14.32;85.36;98869.72;2043700;79;20307;-78
2021/09/09 00:56:41;;;;;;;5.53;3.97;;;;;;;14.29;85.39;98860.22;2042409;79;21141;-78
2021/09/09 00:59:45;;;;;;;4.50;3.95;;;;;;;14.29;85.08;98860.22;2042812;79;20208;-78
2021/09/09 01:02:47;;;;;;;5.19;4.60;;;;;;;14.28;85.09;98863.72;2047376;76;23874;-78
2021/09/09 01:05:50;;;;;;;6.45;3.67;;;;;;;14.24;85.27;98861.25;2047562;79;20291;-78
2021/09/09 01:08:53;;;;;;;4.53;4.11;;;;;;;14.22;85.30;98861.31;2048271;79;20659;-78
2021/09/09 01:11:55;;;;;;;5.38;4.39;;;;;;;14.19;85.15;98857.03;2048514;79;20191;-79
2021/09/09 01:14:58;;;;;;;6.94;4.26;;;;;;;14.18;85.15;98862.25;2047330;79;20251;-78
2021/09/09 01:18:14;;;;;;;5.57;4.30;;;;;;;14.16;85.07;98862.31;2036206;76;23031;-78
2021/09/09 01:21:17;;;;;;;4.24;3.63;;;;;;;14.17;85.00;98857.94;2036599;79;20189;-78
2021/09/09 01:24:21;;;;;;;6.21;4.30;;;;;;;14.16;85.18;98853.63;2036890;79;20234;-78
2021/09/09 01:27:24;;;;;;;6.86;4.20;;;;;;;14.16;85.29;98854.47;2035776;79;20189;-78
2021/09/09 01:30:26;;;;;;;4.63;4.06;;;;;;;14.11;85.24;98851.16;2036010;76;21802;-79
2021/09/09 01:33:30;;;;;;;4.13;3.70;;;;;;;14.08;85.11;98847.75;2036414;79;20210;-79
2021/09/09 01:36:33;;;;;;;4.31;3.96;;;;;;;14.05;85.15;98848.72;2036074;79;20767;-78
2021/09/09 01:39:37;;;;;;;5.14;4.70;;;;;;;14.05;85.20;98850.47;2035353;79;20218;-78
2021/09/09 01:42:40;;;;;;;5.95;4.39;;;;;;;14.02;85.34;98847.94;2035766;79;20201;-79
2021/09/09 01:45:43;;;;;;;8.40;4.28;;;;;;;13.97;85.49;98858.47;2035243;79;20718;-78
2021/09/09 01:48:45;;;;;;;4.69;4.13;;;;;;;13.93;85.54;98859.47;2041426;79;20943;-78
2021/09/09 01:51:48;;;;;;;4.07;3.78;;;;;;;13.93;85.50;98858.63;2047648;79;20231;-78
2021/09/09 01:54:51;;;;;;;4.91;4.22;;;;;;;13.90;85.43;98854.34;2048354;79;20212;-79
2021/09/09 01:57:53;;;;;;;4.45;4.03;;;;;;;13.87;85.35;98849.19;2051538;78;20187;-78
2021/09/09 02:00:59;;;;;;;10.23;4.61;;;;;;;13.86;85.39;98848.34;2045935;76;21305;-78
2021/09/09 02:04:02;;;;;;;4.65;4.26;;;;;;;13.86;85.26;98850.09;2041890;79;20642;-78
2021/09/09 02:07:05;;;;;;;4.19;3.89;;;;;;;13.84;85.45;98852.75;2041297;79;20184;-78
2021/09/09 02:10:09;;;;;;;6.86;4.68;;;;;;;13.79;85.57;98846.78;2041411;79;20943;-79
2021/09/09 02:13:12;;;;;;;5.85;3.96;;;;;;;13.73;85.58;98846.94;2040664;79;20339;-79
2021/09/09 02:16:15;;;;;;;4.03;3.64;;;;;;;13.64;85.79;98849.78;2042230;76;22243;-78
2021/09/09 02:19:17;;;;;;;4.45;3.81;;;;;;;13.63;85.90;98847.22;2047069;79;20172;-79
2021/09/09 02:22:20;;;;;;;4.80;4.22;;;;;;;13.63;85.88;98849.81;2046764;79;20238;-78
2021/09/09 02:25:22;;;;;;;4.89;3.99;;;;;;;13.63;86.27;98852.44;2047152;79;20616;-78
2021/09/09 02:28:25;;;;;;;4.31;3.91;;;;;;;13.55;86.16;98850.03;2049032;79;20686;-78
2021/09/09 02:31:28;;;;;;;4.38;4.06;;;;;;;13.50;86.43;98855.38;2048377;76;22276;-79
2021/09/09 02:34:30;;;;;;;4.28;3.84;;;;;;;13.51;86.49;98854.47;2048350;79;20171;-78
2021/09/09 02:37:33;;;;;;;4.30;3.86;;;;;;;13.50;86.64;98851.91;2048980;79;20188;-79
2021/09/09 02:40:35;;;;;;;4.38;3.97;;;;;;;13.52;86.53;98858.78;2048699;79;20188;-78
2021/09/09 02:43:38;;;;;;;4.79;4.18;;;;;;;13.50;86.63;98852.75;2048367;79;20204;-79
2021/09/09 02:46:41;;;;;;;5.20;4.63;;;;;;;13.48;86.61;98864.13;2044394;76;20851;-79
2021/09/09 02:49:43;;;;;;;5.64;4.25;;;;;;;13.48;86.52;98857.16;2043218;79;20201;-78
2021/09/09 02:52:46;;;;;;;5.21;4.13;;;;;;;13.45;86.43;98857.19;2044144;79;20177;-78
2021/09/09 02:55:49;;;;;;;5.21;4.14;;;;;;;13.44;86.35;98850.28;2043931;79;20233;-78
2021/09/09 02:58:51;;;;;;;5.14;4.22;;;;;;;13.40;86.46;98853.00;2043197;79;20390;-78
2021/09/09 03:01:54;;;;;;;4.47;4.18;;;;;;;13.39;86.28;98857.38;2045871;76;21305;-78
2021/09/09 03:04:57;;;;;;;4.85;4.45;;;;;;;13.39;86.27;98849.53;2048367;79;20219;-78
2021/09/09 03:08:00;;;;;;;4.82;3.86;;;;;;;13.40;86.23;98851.25;2048486;79;20258;-78
2021/09/09 03:11:03;;;;;;;4.60;4.09;;;;;;;13.35;86.44;98847.06;2048388;79;20209;-78
2021/09/09 03:14:05;;;;;;;4.04;3.74;;;;;;;13.28;86.30;98855.03;2047985;79;20251;-78
2021/09/09 03:17:08;;;;;;;4.95;4.45;;;;;;;13.20;86.34;98858.69;2047914;76;27030;-79
2021/09/09 03:20:11;;;;;;;6.00;4.36;;;;;;;13.11;86.65;98869.31;2048694;79;20251;-78
2021/09/09 03:23:14;;;;;;;7.81;4.43;;;;;;;13.10;87.25;98860.63;2048212;79;20247;-78
2021/09/09 03:26:17;;;;;;;4.65;4.25;;;;;;;13.17;86.90;98861.34;2047766;79;20184;-78
2021/09/09 03:29:19;;;;;;;4.51;4.11;;;;;;;13.19;87.20;98859.59;2047825;79;20653;-79
2021/09/09 03:32:22;;;;;;;4.66;4.01;;;;;;;13.24;87.45;98869.00;2043142;76;24644;-78
2021/09/09 03:35:24;;;;;;;5.30;4.74;;;;;;;13.30;87.13;98850.63;2043294;79;20236;-78
2021/09/09 03:38:27;;;;;;;6.19;4.51;;;;;;;13.40;86.88;98850.41;2043074;79;20670;-78
2021/09/09 03:41:31;;;;;;;4.75;4.25;;;;;;;13.48;87.34;98861.50;2042802;79;20173;-79
2021/09/09 03:44:34;;;;;;;5.03;4.39;;;;;;;13.48;87.20;98862.38;2043024;79;20176;-78
2021/09/09 03:47:36;;;;;;;4.34;4.01;;;;;;;13.39;87.31;98870.41;2046776;76;22668;-78
2021/09/09 03:50:39;;;;;;;4.78;4.38;;;;;;;13.43;87.71;98866.81;2048529;79;20633;-79
2021/09/09 03:53:42;;;;;;;4.90;4.43;;;;;;;13.48;87.65;98870.19;2048727;79;20691;-78
2021/09/09 03:56:51;;;;;;;4.57;4.18;;;;;;;13.52;87.92;98864.00;2048342;79;20283;-78
2021/09/09 03:59:54;;;;;;;5.28;4.38;;;;;;;13.61;87.79;98862.91;2048441;79;20282;-78
2021/09/09 04:02:59;;;;;;;4.44;4.01;;;;;;;13.64;87.92;98855.00;2042637;76;21940;-79
2021/09/09 04:06:01;;;;;;;4.22;3.92;;;;;;;13.71;87.36;98851.34;2043020;79;20284;-78
2021/09/09 04:09:04;;;;;;;4.55;4.10;;;;;;;13.81;87.28;98852.81;2042520;79;21237;-78
2021/09/09 04:12:07;;;;;;;6.20;4.13;;;;;;;13.84;87.38;98844.06;2043048;79;20185;-78
2021/09/09 04:15:10;;;;;;;4.50;3.99;;;;;;;13.89;87.50;98824.78;2042903;79;20268;-78
2021/09/09 04:18:12;;;;;;;4.64;4.24;;;;;;;13.90;86.99;98831.69;2046755;76;21384;-78
2021/09/09 04:21:15;;;;;;;7.22;4.07;;;;;;;13.81;87.12;98833.69;2047675;79;20523;-78
2021/09/09 04:24:20;;;;;;;5.97;3.70;;;;;;;13.80;87.22;98827.59;2048233;79;20179;-79
2021/09/09 04:27:24;;;;;;;4.72;4.22;;;;;;;13.79;87.26;98833.72;2047948;79;20551;-78
2021/09/09 04:30:26;;;;;;;4.56;4.25;;;;;;;13.70;87.15;98831.38;2047537;76;21890;-79
2021/09/09 04:33:29;;;;;;;5.13;4.11;;;;;;;13.63;87.42;98842.00;2047757;79;20663;-78
2021/09/09 04:36:32;;;;;;;5.49;4.75;;;;;;;13.64;87.61;98839.34;2047728;79;20172;-78
2021/09/09 04:39:34;;;;;;;5.18;4.44;;;;;;;13.67;87.68;98843.66;2047881;79;20681;-78
2021/09/09 04:42:37;;;;;;;4.32;3.92;;;;;;;13.60;88.02;98867.25;2047490;79;20167;-79
2021/09/09 04:45:40;;;;;;;6.81;4.55;;;;;;;13.59;88.79;98860.34;2045580;76;22337;-79
2021/09/09 04:48:42;;;;;;;5.64;4.14;;;;;;;13.71;88.59;98860.94;2042453;79;20273;-79
2021/09/09 04:51:45;;;;;;;5.91;4.47;;;;;;;13.82;88.29;98854.56;2042564;79;20761;-78
2021/09/09 04:54:48;;;;;;;4.85;4.45;;;;;;;13.89;88.07;98845.66;2042373;79;21032;-78
2021/09/09 04:57:50;;;;;;;5.84;4.46;;;;;;;13.94;88.22;98848.13;2042521;79;20732;-78
2021/09/09 05:00:54;;;;;;;7.00;5.00;;;;;;;13.97;87.86;98837.59;2044023;76;21506;-78
2021/09/09 05:03:56;;;;;;;5.13;4.28;;;;;;;13.97;87.66;98841.97;2047676;79;20179;-79
2021/09/09 05:06:59;;;;;;;6.26;5.14;;;;;;;13.93;87.57;98838.59;2048787;78;20195;-78
2021/09/09 05:10:03;;;;;;;7.94;4.53;;;;;;;13.90;87.29;98842.13;2048279;79;20663;-79
2021/09/09 05:13:06;;;;;;;5.30;4.18;;;;;;;13.87;87.46;98837.00;2048985;79;20205;-79
2021/09/09 05:16:09;;;;;;;5.68;4.15;;;;;;;13.77;87.34;98835.53;2049292;76;26875;-78
2021/09/09 05:19:12;;;;;;;7.72;3.86;;;;;;;13.78;87.46;98845.06;2048290;79;21141;-78
2021/09/09 05:22:14;;;;;;;4.78;4.36;;;;;;;13.74;87.67;98846.03;2047852;79;20831;-79
2021/09/09 05:25:17;;;;;;;5.25;4.16;;;;;;;13.77;87.81;98847.72;2047277;79;20204;-79
2021/09/09 05:28:20;;;;;;;5.00;4.44;;;;;;;13.75;87.96;98854.72;2047616;79;20294;-79
2021/09/09 05:31:23;;;;;;;4.53;4.07;;;;;;;13.77;88.09;98863.38;2045428;76;22050;-78
2021/09/09 05:34:25;;;;;;;4.64;4.24;;;;;;;13.82;88.31;98865.00;2043061;79;20222;-79
2021/09/09 05:37:28;;;;;;;4.35;3.92;;;;;;;13.91;88.32;98869.09;2042927;79;20260;-78
2021/09/09 05:40:31;;;;;;;4.70;4.30;;;;;;;14.03;88.04;98875.75;2043316;79;20637;-78
2021/09/09 05:43:33;;;;;;;4.99;4.59;;;;;;;14.16;87.62;98875.34;2043082;79;20247;-78
2021/09/09 05:46:36;;;;;;;5.89;4.32;;;;;;;14.32;87.23;98877.56;2044297;76;21112;-79
2021/09/09 05:49:39;;;;;;;5.07;4.19;;;;;;;14.41;87.04;98878.16;2048109;79;20964;-78
2021/09/09 05:52:41;;;;;;;5.29;4.76;;;;;;;14.56;86.76;98883.91;2047706;79;20750;-79
2021/09/09 05:55:44;;;;;;;5.24;4.66;;;;;;;14.65;86.24;98886.22;2048273;79;20282;-78
2021/09/09 05:58:47;;;;;;;6.26;4.64;;;;;;;14.71;86.02;98876.44;2047187;79;20212;-78
2021/09/09 06:01:50;;;;;;;4.85;4.35;;;;;;;14.79;85.90;98889.31;2043599;76;24707;-78
2021/09/09 06:04:55;;;;;;;6.59;4.50;;;;;;;14.86;85.60;98876.91;2042292;79;20188;-79
2021/09/09 06:07:57;;;;;;;5.40;4.90;;;;;;;14.91;85.64;98882.88;2042046;79;20260;-79
2021/09/09 06:11:00;;;;;;;5.71;4.60;;;;;;;14.89;85.50;98882.88;2042691;79;20240;-78
2021/09/09 06:14:04;;;;;;;5.82;4.45;;;;;;;14.90;85.27;98881.13;2043629;79;20177;-76
2021/09/09 06:17:06;;;;;;;7.32;4.57;;;;;;;14.86;85.34;98880.38;2040400;77;36145;-76
2021/09/09 06:20:10;;;;;;;5.38;4.26;;;;;;;14.92;85.78;98887.19;2040664;79;20205;-76
2021/09/09 06:23:13;;;;;;;6.75;5.00;;;;;;;14.95;86.08;98885.34;2040873;79;20276;-76
2021/09/09 06:26:18;;;;;;;5.04;4.56;;;;;;;15.09;85.83;98887.53;2040784;79;20192;-76
2021/09/09 06:29:20;;;;;;;6.05;4.38;;;;;;;15.21;85.41;98892.38;2040969;79;20187;-76
2021/09/09 06:32:25;;;;;;;6.29;4.44;;;;;;;15.28;85.38;98887.81;2044298;76;20365;-76
2021/09/09 06:35:29;;;;;;;4.95;4.39;;;;;;;15.39;85.19;98898.78;2046368;79;20207;-75
2021/09/09 06:38:31;;;;;;;4.99;4.56;;;;;;;15.52;85.09;98887.03;2046558;79;20167;-75
2021/09/09 06:41:34;;;;;;;7.50;5.26;;;;;;;15.67;84.56;98888.31;2047036;79;20290;-76
2021/09/09 06:44:37;;;;;;;6.16;5.13;;;;;;;15.70;84.15;98888.22;2047399;79;20211;-76
2021/09/09 06:47:39;;;;;;;6.19;4.55;;;;;;;15.77;83.84;98896.72;2043095;77;22632;-76
2021/09/09 06:50:42;;;;;;;5.24;4.39;;;;;;;15.74;84.08;98886.34;2042059;79;20414;-76
2021/09/09 06:53:45;;;;;;;6.11;4.91;;;;;;;15.76;84.49;98892.38;2041671;79;20168;-75
2021/09/09 06:56:48;;;;;;;7.93;4.97;;;;;;;15.85;85.05;98905.19;2041498;79;20192;-76
2021/09/09 06:59:50;;;;;;;8.43;5.11;;;;;;;15.95;85.20;98903.94;2041334;79;20172;-76
2021/09/09 07:02:53;;;;;;;6.56;4.71;;;;;;;16.11;85.08;98896.41;2045981;76;26294;-76
2021/09/09 07:05:57;;;;;;;7.15;4.97;;;;;;;16.37;84.70;98903.38;2048270;79;20248;-76
2021/09/09 07:08:59;;;;;;;8.41;4.69;;;;;;;16.91;83.64;98909.25;2048914;79;20168;-76
2021/09/09 07:12:02;;;;;;;9.90;4.72;;;;;;;17.52;81.53;98906.84;2048981;79;20244;-76
2021/09/09 07:15:06;;;;;;;4.97;4.29;;;;;;;17.95;79.43;98920.84;2048629;79;20653;-76
2021/09/09 07:18:10;;;;;;;4.22;3.90;;;;;;;18.30;77.41;98929.00;2049047;76;20769;-76
2021/09/09 07:21:13;;;;;;;4.99;4.13;;;;;;;18.74;76.10;98928.88;2049805;79;20175;-76
2021/09/09 07:24:19;;;;;;;7.63;4.25;;;;;;;19.23;75.24;98928.34;2050029;79;20167;-76
2021/09/09 07:27:22;;;;;;;7.69;4.01;;;;;;;19.48;73.65;98937.69;2049130;79;20168;-75
2021/09/09 07:30:27;;;;;;;7.03;4.10;;;;;;;19.82;72.29;98945.72;2045558;77;21560;-76
2021/09/09 07:33:29;;;;;;;6.39;3.85;;;;;;;20.28;70.81;98940.75;2044318;79;20172;-76
2021/09/09 07:36:32;;;;;;;5.44;3.59;;;;;;;20.53;70.44;98940.41;2044733;79;20168;-76
2021/09/09 07:39:35;;;;;;;5.04;3.46;;;;;;;20.90;68.48;98959.56;2044151;79;20168;-76
2021/09/09 07:42:37;;;;;;;8.19;3.30;;;;;;;21.21;69.26;98956.13;2044588;79;20208;-76
2021/09/09 07:45:40;;;;;;;4.66;3.51;;;;;;;21.60;68.10;98953.09;2045115;76;20970;-76
2021/09/09 07:48:43;;;;;;;5.89;3.58;;;;;;;22.00;66.46;98955.16;2049533;79;20164;-76
2021/09/09 07:51:46;;;;;;;5.10;3.40;;;;;;;22.38;66.42;98946.78;2052429;78;20180;-76
2021/09/09 07:54:49;;;;;;;3.63;3.29;;;;;;;22.77;64.12;98950.59;2049908;79;20191;-76
2021/09/09 07:57:51;;;;;;;5.19;3.45;;;;;;;23.05;64.21;98949.78;2048729;79;20202;-76
2021/09/09 08:00:54;;;;;;;3.10;2.61;;;;;;;23.09;64.17;98953.94;2048029;76;21958;-76
2021/09/09 08:03:57;;;;;;;9.68;3.20;;;;;;;22.98;64.14;98957.28;2048637;79;20172;-76
2021/09/09 08:07:00;;;;;;;3.25;2.95;;;;;;;22.73;64.39;98957.88;2049076;79;20185;-77
2021/09/09 08:10:02;;;;;;;4.57;2.94;;;;;;;22.50;64.98;98958.44;2049343;79;20290;-76
2021/09/09 08:13:05;;;;;;;3.76;2.51;;;;;;;22.39;65.68;98959.06;2049182;79;20870;-75
2021/09/09 08:16:08;;;;;;;3.46;2.58;;;;;;;22.24;66.41;98957.31;2048032;76;23914;-76
2021/09/09 08:19:10;;;;;;;4.13;3.10;;;;;;;22.04;67.66;98961.09;2049774;79;20835;-75
2021/09/09 08:22:13;;;;;;;6.50;3.08;;;;;;;21.75;67.94;98956.66;2049027;79;20179;-75
2021/09/09 08:25:16;;;;;;;7.04;2.99;;;;;;;21.52;69.07;98963.22;2048526;79;20202;-75
2021/09/09 08:28:19;;;;;;;3.71;2.89;;;;;;;21.35;70.10;98951.78;2048188;79;20251;-75
2021/09/09 08:31:22;;;;;;;5.30;2.86;;;;;;;21.22;71.30;98950.75;2045787;77;25707;-75
2021/09/09 08:34:27;;;;;;;6.25;2.67;;;;;;;21.12;72.12;98955.66;2042980;79;20261;-77
2021/09/09 08:37:29;;;;;;;3.86;2.49;;;;;;;20.99;72.49;98957.25;2044304;79;20230;-75
2021/09/09 08:40:32;;;;;;;6.93;3.49;;;;;;;20.83;72.71;98960.84;2043811;79;20306;-75
2021/09/09 08:43:35;;;;;;;6.01;2.83;;;;;;;20.72;73.78;98956.97;2043299;79;20262;-75
2021/09/09 08:46:41;;;;;;;5.51;3.15;;;;;;;20.63;74.71;98975.91;2043622;76;21121;-75
2021/09/09 08:49:44;;;;;;;6.19;3.33;;;;;;;20.52;76.27;98972.97;2047447;79;20237;-75
2021/09/09 08:55:53;;;;;;;3.84;3.25;;;;;;;20.45;78.18;98979.47;2020475;80;20179;-76
2021/09/09 08:58:55;;;;;;;5.57;3.13;;;;;;;20.37;78.22;98979.84;2020872;80;20664;-76
2021/09/09 09:02:09;;;;;;;3.49;3.19;;;;;;;20.30;78.68;98980.25;2020137;77;21157;-76
2021/09/09 09:05:14;;;;;;;4.11;3.54;;;;;;;20.28;79.69;98982.09;2021989;80;21197;-75
2021/09/09 09:08:16;;;;;;;4.47;2.99;;;;;;;20.28;80.43;98976.81;2021399;80;20236;-76
2021/09/09 09:11:31;;;;;;;5.40;3.17;;;;;;;20.36;80.19;98977.31;2021279;80;20211;-76
2021/09/09 09:14:34;;;;;;;5.93;3.36;;;;;;;20.49;79.74;98978.41;2022119;80;20206;-76
2021/09/09 09:18:02;;;;;;;5.26;3.24;;;;;;;20.67;79.23;98979.25;2016409;78;33313;-76
2021/09/09 09:21:04;;;;;;;6.10;3.69;;;;;;;20.96;78.14;98973.28;2014812;80;20176;-76
2021/09/09 09:24:08;;;;;;;5.10;3.25;;;;;;;21.54;77.41;98972.75;2015075;80;20300;-76
2021/09/09 09:27:16;;;;;;;7.91;3.54;;;;;;;22.13;76.68;98973.00;2014670;80;20214;-76
2021/09/09 09:30:21;;;;;;;6.72;3.54;;;;;;;22.46;75.33;98975.44;2013607;80;20879;-77
2021/09/09 09:33:34;;;;;;;9.60;3.84;;;;;;;22.61;73.69;98995.66;2020969;80;20659;-76
2021/09/09 09:36:39;;;;;;;5.47;3.53;;;;;;;22.76;72.43;98999.19;2021470;80;20178;-76
2021/09/09 09:40:07;;;;;;;3.85;2.67;;;;;;;23.07;70.30;98988.47;2021861;80;20174;-77
2021/09/09 09:43:11;;;;;;;3.20;2.34;;;;;;;23.49;69.99;98984.06;2021847;80;20195;-77
2021/09/09 09:46:23;;;;;;;4.09;2.76;;;;;;;23.72;69.33;98972.88;2021489;77;23942;-76
2021/09/09 09:49:28;;;;;;;5.90;3.76;;;;;;;23.69;68.53;98982.81;2021945;80;20208;-76
2021/09/09 09:52:31;;;;;;;3.04;2.17;;;;;;;23.64;69.02;98987.56;2021583;80;20178;-76
2021/09/09 09:55:41;;;;;;;6.11;2.34;;;;;;;23.50;69.54;98994.56;2021606;80;20279;-76
2021/09/09 09:58:43;;;;;;;4.85;2.90;;;;;;;23.44;69.90;98997.63;2021255;80;20994;-75
2021/09/09 10:01:47;;;;;;;7.70;2.96;;;;;;;23.39;70.14;99002.38;2021158;80;20272;-76
2021/09/09 10:04:51;;;;;;;3.30;2.53;;;;;;;23.32;70.38;99006.31;2021671;80;20233;-76
2021/09/09 10:07:54;;;;;;;4.46;2.86;;;;;;;23.11;71.16;99000.56;2022097;80;20174;-76
2021/09/09 10:10:56;;;;;;;4.15;2.15;;;;;;;23.01;71.05;99004.75;2021979;80;20991;-76
2021/09/09 10:14:02;;;;;;;3.41;1.90;;;;;;;22.91;71.68;99011.53;2019908;80;20199;-76
2021/09/09 10:17:06;;;;;;;5.35;2.41;;;;;;;22.69;71.76;99011.97;2021095;77;23123;-76
2021/09/09 10:20:36;;;;;;;4.10;1.80;;;;;;;22.52;72.65;99023.56;2022393;80;20163;-76
2021/09/09 10:23:39;;;;;;;4.10;1.63;;;;;;;22.22;72.59;99017.41;2021817;80;20769;-76
2021/09/09 10:26:41;;;;;;;3.42;1.26;;;;;;;22.09;73.06;99025.22;2023935;80;20186;-76
2021/09/09 10:29:48;;;;;;;5.74;1.45;;;;;;;21.99;73.93;99021.34;2022504;80;20239;-76
2021/09/09 10:32:56;;;;;;;4.18;1.45;;;;;;;21.89;73.88;99028.91;2020308;77;20721;-76
2021/09/09 10:35:59;;;;;;;3.44;1.36;;;;;;;21.92;74.30;99020.00;2021527;80;20226;-76
2021/09/09 10:39:02;;;;;;;3.47;1.30;;;;;;;22.09;74.15;99021.72;2021128;80;20175;-76
2021/09/09 10:42:32;;;;;;;3.19;1.20;;;;;;;22.08;73.42;99018.19;2022422;80;20684;-76
2021/09/09 10:45:35;;;;;;;4.14;1.50;;;;;;;22.25;72.86;99019.84;2024660;77;25307;-76
2021/09/09 10:48:39;;;;;;;5.22;1.04;;;;;;;22.39;72.13;99019.91;2017522;80;20309;-76
2021/09/09 10:52:04;;;;;;;1.85;1.02;;;;;;;22.59;71.87;99022.22;2015916;80;20188;-77
2021/09/09 10:55:13;;;;;;;1.08;0.95;;;;;;;22.76;70.58;99017.72;2020810;80;20265;-76
2021/09/09 10:58:18;;;;;;;2.29;1.00;;;;;;;22.70;69.58;99032.19;2021334;80;20255;-77
2021/09/09 11:01:22;;;;;;;0.94;0.81;;;;;;;22.77;69.68;99035.31;2020754;78;25121;-76
2021/09/09 11:04:29;;;;;;;1.13;0.95;;;;;;;22.94;69.63;99029.03;2025986;80;20240;-77
2021/09/09 11:07:32;;;;;;;4.29;0.80;;;;;;;23.11;69.49;99027.06;2025996;80;21122;-76
2021/09/09 11:10:39;;;;;;;0.98;0.84;;;;;;;23.31;70.12;99030.28;2022945;80;20232;-77
2021/09/09 11:13:42;;;;;;;1.23;0.65;;;;;;;23.28;68.01;99028.66;2026387;80;20202;-76
2021/09/09 11:16:44;;;;;;;1.96;0.77;;;;;;;23.35;68.10;99026.50;2019894;77;20834;-76
2021/09/09 11:19:58;;;;;;;4.46;0.80;;;;;;;23.51;67.90;99029.88;2026406;79;20210;-76
2021/09/09 11:23:08;;;;;;;5.15;1.11;;;;;;;23.69;67.80;99027.88;2027773;79;20198;-77
2021/09/09 11:26:16;;;;;;;2.70;0.90;;;;;;;24.09;66.88;99019.06;2028061;79;20775;-76
2021/09/09 11:29:23;;;;;;;1.24;0.77;;;;;;;24.38;66.07;99016.31;2028361;79;20689;-77
2021/09/09 11:32:26;;;;;;;2.14;0.77;;;;;;;24.63;65.47;99012.88;2030481;77;21613;-77
2021/09/09 11:35:29;;;;;;;2.06;0.80;;;;;;;24.93;64.25;99012.53;2034385;79;20246;-77
2021/09/09 11:38:32;;;;;;;2.46;0.80;;;;;;;24.96;62.40;99018.53;2033049;79;20221;-76
2021/09/09 11:41:36;;;;;;;1.42;0.80;;;;;;;24.78;62.63;99014.47;2032450;79;20182;-76
2021/09/09 11:44:41;;;;;;;1.50;0.85;;;;;;;24.83;63.37;99012.34;2033121;79;20201;-76
2021/09/09 11:47:44;;;;;;;4.34;0.98;;;;;;;24.92;63.54;99018.81;2026615;77;24333;-76
2021/09/09 11:50:47;;;;;;;2.81;0.90;;;;;;;24.97;62.90;99001.63;2026892;79;20262;-76
2021/09/09 11:53:50;;;;;;;1.99;0.70;;;;;;;25.19;62.65;99011.63;2028278;79;20163;-76
2021/09/09 11:57:12;;;;;;;1.24;0.79;;;;;;;25.34;62.53;99003.53;2027879;79;20567;-76
2021/09/09 12:00:15;;;;;;;2.25;0.80;;;;;;;25.33;61.48;98999.19;2027083;79;20190;-77
2021/09/09 12:03:17;;;;;;;5.43;1.34;;;;;;;25.13;61.45;98990.78;2022016;78;27073;-76
2021/09/09 12:06:23;;;;;;;4.63;1.00;;;;;;;25.06;62.59;99000.16;2023210;80;20187;-76
2021/09/09 12:09:28;;;;;;;2.86;0.94;;;;;;;25.06;62.96;98999.31;2019346;80;20745;-77
2021/09/09 12:12:33;;;;;;;1.58;0.94;;;;;;;25.03;63.05;98988.88;2022508;80;20199;-77
2021/09/09 12:15:36;;;;;;;2.89;1.14;;;;;;;25.08;63.80;98997.38;2021457;77;42686;-76
2021/09/09 12:18:39;;;;;;;1.77;1.10;;;;;;;25.52;63.21;98988.91;2021688;80;20258;-77
2021/09/09 12:21:54;;;;;;;1.34;0.88;;;;;;;26.09;62.19;98990.97;2022609;80;20171;-77
2021/09/09 12:24:57;;;;;;;2.17;1.25;;;;;;;26.56;61.13;98989.19;2023214;80;20255;-76
2021/09/09 12:28:13;;;;;;;3.95;1.10;;;;;;;26.62;59.81;98983.41;2022207;80;20199;-77
2021/09/09 12:31:30;;;;;;;3.09;1.26;;;;;;;26.71;59.86;98985.34;2022706;80;24463;-77
2021/09/09 12:34:35;;;;;;;3.33;0.90;;;;;;;26.76;59.82;98985.88;2021523;80;20219;-76
2021/09/09 12:37:38;;;;;;;4.26;1.51;;;;;;;26.83;60.05;98986.25;2019894;80;20193;-77
2021/09/09 12:40:46;;;;;;;2.22;1.21;;;;;;;26.60;58.73;98980.88;2020900;80;20171;-77
2021/09/09 12:43:58;;;;;;;;;;;;;;;26.34;58.26;98979.31;2020418;80;20197;-77
2021/09/09 12:47:14;;;;;;;4.80;1.39;;;;;;;26.43;59.56;98968.00;2019006;77;23389;-76
2021/09/09 12:50:34;;;;;;;2.84;1.10;;;;;;;26.61;59.11;98966.59;2020468;80;20968;-77
2021/09/09 12:53:37;;;;;;;3.58;0.90;;;;;;;26.69;59.31;98966.84;2022081;79;20570;-77
2021/09/09 12:56:49;;;;;;;2.29;1.14;;;;;;;26.84;58.45;98959.47;2024709;79;20739;-77
2021/09/09 12:59:52;;;;;;;2.71;1.10;;;;;;;26.99;57.96;98958.28;2025920;79;20186;-77
2021/09/09 13:02:55;;;;;;;2.64;1.35;;;;;;;27.35;57.70;98970.53;2020338;77;47079;-77
2021/09/09 13:05:59;;;;;;;3.44;1.20;;;;;;;27.46;55.87;98960.78;2023240;80;20167;-78
2021/09/09 13:09:02;;;;;;;1.69;0.98;;;;;;;27.38;54.20;98953.44;2021202;80;20228;-77
2021/09/09 13:12:05;;;;;;;2.69;1.10;;;;;;;27.20;55.13;98954.91;2020216;80;20179;-77
2021/09/09 13:15:08;;;;;;;2.15;1.34;;;;;;;27.25;55.12;98945.56;2019544;79;20171;-77
2021/09/09 13:18:11;;;;;;;1.65;1.54;;;;;;;27.50;54.08;98938.25;2021675;77;25024;-77
2021/09/09 13:21:18;;;;;;;3.06;2.03;;;;;;;27.58;49.98;98950.00;2024724;79;20158;-78
2021/09/09 13:24:21;;;;;;;3.08;1.48;;;;;;;27.44;47.57;98944.91;2025168;79;20170;-77
2021/09/09 13:27:23;;;;;;;1.79;1.36;;;;;;;27.06;48.82;98953.31;2028736;79;20283;-77
2021/09/09 13:30:26;;;;;;;1.91;1.49;;;;;;;26.77;48.49;98945.78;2024191;77;20507;-76
2021/09/09 13:33:29;;;;;;;2.06;1.30;;;;;;;26.64;49.43;98942.38;2020771;80;20175;-78
2021/09/09 13:36:32;;;;;;;4.81;2.47;;;;;;;26.55;50.27;98940.41;2020466;80;20178;-77
2021/09/09 13:39:35;;;;;;;2.83;1.84;;;;;;;26.52;49.94;98945.13;2019923;80;20183;-77
2021/09/09 13:42:38;;;;;;;2.97;1.55;;;;;;;26.39;50.41;98945.22;2020212;80;20225;-76
2021/09/09 13:45:41;;;;;;;2.83;1.30;;;;;;;26.42;50.73;98943.19;2022176;77;22583;-76
2021/09/09 13:48:43;;;;;;;4.03;1.73;;;;;;;26.56;49.35;98950.09;2025370;79;20199;-77
2021/09/09 13:51:46;;;;;;;6.72;1.60;;;;;;;26.94;48.27;98936.47;2025518;79;20241;-76
2021/09/09 13:54:49;;;;;;;2.44;1.79;;;;;;;27.32;47.64;98924.59;2024708;79;20194;-76
2021/09/09 13:57:51;;;;;;;4.95;1.81;;;;;;;27.52;46.58;98931.84;2024665;79;20171;-76
2021/09/09 14:00:54;;;;;;;5.59;1.70;;;;;;;27.68;46.06;98942.13;2022024;77;22720;-76
2021/09/09 14:03:57;;;;;;;5.65;2.20;;;;;;;27.52;46.23;98931.84;2020819;80;20178;-76
2021/09/09 14:07:00;;;;;;;4.09;1.73;;;;;;;27.42;46.66;98935.34;2020662;80;20217;-76
2021/09/09 14:10:06;;;;;;;3.53;2.22;;;;;;;27.33;47.81;98927.13;2021873;80;20228;-76
2021/09/09 14:13:10;;;;;;;2.06;1.85;;;;;;;27.45;48.42;98930.63;2021689;80;20984;-76
2021/09/09 14:16:13;;;;;;;2.66;1.92;;;;;;;27.57;48.88;98924.28;2024430;77;22324;-76
2021/09/09 14:19:15;;;;;;;6.45;1.90;;;;;;;27.56;48.78;98922.59;2027039;80;20252;-76
2021/09/09 14:22:18;;;;;;;2.41;2.21;;;;;;;27.55;48.64;98918.25;2027900;79;20232;-75
2021/09/09 14:25:21;;;;;;;3.26;2.24;;;;;;;27.53;48.70;98920.19;2027967;79;20192;-76
2021/09/09 14:28:24;;;;;;;3.08;1.77;;;;;;;27.46;48.92;98923.47;2028190;80;20171;-77
2021/09/09 14:31:26;;;;;;;3.75;2.15;;;;;;;27.37;49.55;98914.41;2025579;77;92701;-76